createdAt,value
2023-02-19T00:02:58.501Z,10.7
2023-02-19T00:07:59.004Z,10.6
2023-02-19T00:12:58.500Z,10
2023-02-19T00:17:58.506Z,10
2023-02-19T00:22:58.498Z,10
2023-02-19T00:27:58.485Z,10.4
2023-02-19T00:32:58.668Z,10
2023-02-19T00:37:59.042Z,10
2023-02-19T00:42:59.848Z,10.2
2023-02-19T00:47:58.490Z,10.3
2023-02-19T00:52:58.547Z,10.3
2023-02-19T00:57:58.576Z,10.3
2023-02-19T01:02:58.570Z,10.3
2023-02-19T01:07:58.537Z,11.4
2023-02-19T01:12:58.496Z,11.9
2023-02-19T01:18:13.209Z,12.2
2023-02-19T01:22:58.834Z,12.4
2023-02-19T01:27:58.547Z,13.5
2023-02-19T01:32:58.523Z,14.7
2023-02-19T01:37:58.543Z,14.7
2023-02-19T01:42:58.546Z,14.7
2023-02-19T01:47:59.009Z,14.2
2023-02-19T01:52:58.524Z,13.5
2023-02-19T01:57:58.574Z,13
2023-02-19T02:02:58.540Z,12.9
2023-02-19T02:07:59.808Z,12.5
2023-02-19T02:12:58.597Z,11.3
2023-02-19T02:17:59.124Z,11
2023-02-19T02:22:58.494Z,10.7
2023-02-19T02:27:58.527Z,10.2
2023-02-19T02:32:58.522Z,8.8
2023-02-19T02:37:58.502Z,7.3
2023-02-19T02:42:58.517Z,6.6
2023-02-19T02:47:58.552Z,6.4
2023-02-19T02:52:58.536Z,6.3
2023-02-19T02:57:58.564Z,5.9
2023-02-19T03:02:58.602Z,5.9
2023-02-19T03:12:58.670Z,6.4
2023-02-19T03:17:58.632Z,6.6
2023-02-19T03:22:58.766Z,6.6
2023-02-19T03:27:58.575Z,6.6
2023-02-19T03:32:58.533Z,6.6
2023-02-19T03:37:58.736Z,6.6
2023-02-19T03:42:58.608Z,6.2
2023-02-19T03:47:58.489Z,6
2023-02-19T03:52:58.466Z,4.9
2023-02-19T03:57:58.608Z,4.5
2023-02-19T04:02:58.533Z,4.2
2023-02-19T04:07:58.551Z,4
2023-02-19T04:12:58.529Z,4
2023-02-19T04:17:58.529Z,4
2023-02-19T04:22:58.534Z,3.9
2023-02-19T04:27:58.512Z,4
2023-02-19T04:32:58.544Z,4.4
2023-02-19T04:37:58.542Z,4.7
2023-02-19T04:42:58.526Z,4.8
2023-02-19T04:47:58.519Z,5.2
2023-02-19T04:52:58.542Z,5.7
2023-02-19T04:57:58.848Z,5.8
2023-02-19T05:02:58.508Z,6.3
2023-02-19T05:07:58.520Z,6.6
2023-02-19T05:12:58.543Z,7
2023-02-19T05:17:58.492Z,7.2
2023-02-19T05:22:58.563Z,7.2
2023-02-19T05:27:58.579Z,7.3
2023-02-19T05:32:58.557Z,7.3
2023-02-19T05:37:58.583Z,7.3
2023-02-19T05:42:58.560Z,7.3
2023-02-19T05:47:58.779Z,7.1
2023-02-19T05:52:58.613Z,7
2023-02-19T05:57:58.568Z,7
2023-02-19T06:02:58.592Z,7
2023-02-19T06:07:58.592Z,7.1
2023-02-19T06:12:58.576Z,7
2023-02-19T06:17:58.572Z,7.1
2023-02-19T06:22:58.578Z,6.8
2023-02-19T06:27:58.553Z,7.2
2023-02-19T06:32:58.520Z,7.4
2023-02-19T06:37:58.568Z,7.4
2023-02-19T06:42:58.541Z,7.7
2023-02-19T06:47:58.558Z,8
2023-02-19T06:52:58.631Z,8
2023-02-19T06:57:58.556Z,8
2023-02-19T07:02:58.548Z,7.7
2023-02-19T07:07:58.525Z,7.2
2023-02-19T07:12:58.515Z,7.2
2023-02-19T07:17:58.643Z,6.8
2023-02-19T07:22:58.754Z,6.8
2023-02-19T07:28:00.451Z,6.6
2023-02-19T07:32:58.620Z,6
2023-02-19T07:37:58.637Z,6
2023-02-19T07:42:58.595Z,5.6
2023-02-19T07:47:58.506Z,5.6
2023-02-19T07:52:58.587Z,5.3
2023-02-19T07:57:58.593Z,5
2023-02-19T08:02:58.705Z,4.9
2023-02-19T08:07:58.550Z,4.8
2023-02-19T08:12:58.549Z,4.9
2023-02-19T08:17:58.589Z,4.6
2023-02-19T08:22:58.602Z,3.9
2023-02-19T08:27:58.576Z,3.9
2023-02-19T08:32:59.355Z,3.7
2023-02-19T08:37:58.582Z,3.5
2023-02-19T08:42:59.055Z,3.5
2023-02-19T08:47:59.649Z,2.9
2023-02-19T08:52:58.594Z,2.8
2023-02-19T08:57:58.660Z,2.9
2023-02-19T09:02:58.558Z,2.8
2023-02-19T09:07:58.570Z,2.6
2023-02-19T09:12:58.574Z,2.6
2023-02-19T09:17:58.518Z,2.6
2023-02-19T09:22:58.592Z,2.8
2023-02-19T09:27:58.604Z,3.6
2023-02-19T09:32:58.558Z,3.5
2023-02-19T09:37:58.570Z,3.6
2023-02-19T09:47:58.652Z,3.8
2023-02-19T09:52:58.673Z,3.8
2023-02-19T09:57:58.576Z,4
2023-02-19T10:02:58.549Z,4.1
2023-02-19T10:07:58.591Z,5
2023-02-19T10:12:58.591Z,5
2023-02-19T10:17:58.571Z,6
2023-02-19T10:22:58.586Z,5.1
2023-02-19T10:27:58.562Z,5.1
2023-02-19T10:32:58.555Z,5
2023-02-19T10:37:58.636Z,5.1
2023-02-19T10:42:58.580Z,5.1
2023-02-19T10:47:58.560Z,5.1
2023-02-19T10:52:58.584Z,4.7
2023-02-19T10:57:58.603Z,4.7
2023-02-19T11:02:58.629Z,5
2023-02-19T11:07:58.626Z,5.6
2023-02-19T11:12:58.645Z,5.9
2023-02-19T11:17:58.631Z,5.9
2023-02-19T11:22:58.638Z,6
2023-02-19T11:27:58.650Z,6.6
2023-02-19T11:32:58.608Z,6.6
2023-02-19T11:37:58.625Z,6.6
2023-02-19T11:42:58.621Z,6.9
2023-02-19T11:47:58.589Z,6.9
2023-02-19T11:52:58.563Z,6.5
2023-02-19T11:57:58.609Z,6.3
2023-02-19T12:02:58.651Z,6.3
2023-02-19T12:07:58.608Z,6.3
2023-02-19T12:12:58.587Z,6.4
2023-02-19T12:17:58.594Z,6.4
2023-02-19T12:22:58.704Z,6.4
2023-02-19T12:27:58.639Z,6.4
2023-02-19T12:32:58.609Z,6.4
2023-02-19T12:37:58.652Z,6.4
2023-02-19T12:42:58.611Z,6.4
2023-02-19T12:47:58.552Z,7
2023-02-19T12:52:58.659Z,5.8
2023-02-19T12:58:00.148Z,6
2023-02-19T13:02:58.616Z,6
2023-02-19T13:07:58.601Z,7
2023-02-19T13:12:58.614Z,7.8
2023-02-19T13:18:01.450Z,7.8
2023-02-19T13:22:58.602Z,9
2023-02-19T13:27:58.606Z,9
2023-02-19T13:32:58.671Z,9
2023-02-19T13:37:58.599Z,7.6
2023-02-19T13:42:58.880Z,6.6
2023-02-19T13:47:58.651Z,6.5
2023-02-19T13:52:58.683Z,6.5
2023-02-19T13:57:58.644Z,6.5
2023-02-19T14:02:58.671Z,7.2
2023-02-19T14:07:58.716Z,7.2
2023-02-19T14:12:58.679Z,7.2
2023-02-19T14:17:58.654Z,7.4
2023-02-19T14:22:58.672Z,7.4
2023-02-19T14:27:58.615Z,7.3
2023-02-19T14:33:10.037Z,7.4
2023-02-19T14:37:58.673Z,7.4
2023-02-19T14:43:01.110Z,7.9
2023-02-19T14:47:58.892Z,8.5
2023-02-19T14:52:58.611Z,8.9
2023-02-19T14:57:58.696Z,9.7
2023-02-19T15:02:58.766Z,9.7
2023-02-19T15:07:58.918Z,9.7
2023-02-19T15:12:58.645Z,8.9
2023-02-19T15:17:58.671Z,7
2023-02-19T15:22:59.672Z,7
2023-02-19T15:27:58.665Z,7
2023-02-19T15:32:58.662Z,7
2023-02-19T15:37:58.682Z,7.4
2023-02-19T15:42:58.608Z,7.9
2023-02-19T15:47:58.636Z,7.9
2023-02-19T15:53:01.654Z,8.3
2023-02-19T15:57:58.913Z,7.9
2023-02-19T16:02:58.746Z,7.8
2023-02-19T16:07:58.647Z,7.8
2023-02-19T16:12:58.667Z,6.9
2023-02-19T16:17:58.710Z,6.5
2023-02-19T16:22:58.635Z,6.4
2023-02-19T16:27:58.908Z,6.4
2023-02-19T16:32:58.724Z,6.4
2023-02-19T16:37:59.773Z,6.9
2023-02-19T16:42:58.630Z,7.9
2023-02-19T16:47:58.693Z,8.4
2023-02-19T16:52:58.972Z,8.4
2023-02-19T16:57:58.707Z,8.5
2023-02-19T17:02:58.648Z,8.4
2023-02-19T17:07:58.649Z,8.4
2023-02-19T17:12:59.673Z,8.4
2023-02-19T17:17:58.662Z,8.5
2023-02-19T17:22:58.676Z,8.5
2023-02-19T17:27:58.644Z,8.6
2023-02-19T17:32:58.626Z,9.6
2023-02-19T17:37:58.650Z,10.1
2023-02-19T17:42:58.717Z,10.1
2023-02-19T17:47:58.714Z,10.6
2023-02-19T17:52:58.610Z,11.8
2023-02-19T17:57:58.707Z,11.8
2023-02-19T18:02:58.646Z,11.8
2023-02-19T18:07:58.675Z,12
2023-02-19T18:12:58.699Z,12
2023-02-19T18:17:58.645Z,12
2023-02-19T18:22:58.673Z,12.1
2023-02-19T18:27:58.683Z,14.1
2023-02-19T18:32:58.655Z,14.1
2023-02-19T18:37:59.174Z,14.8
2023-02-19T18:42:58.696Z,14.1
2023-02-19T18:47:58.760Z,13.1
2023-02-19T18:52:58.629Z,13.1
2023-02-19T18:57:58.730Z,13.1
2023-02-19T19:02:58.690Z,13.1
2023-02-19T19:07:58.694Z,13.1
2023-02-19T19:12:59.035Z,13.1
2023-02-19T19:17:58.700Z,13.3
2023-02-19T19:22:58.676Z,13.8
2023-02-19T19:27:58.649Z,13.8
2023-02-19T19:32:58.623Z,13.7
2023-02-19T19:37:58.730Z,13.7
2023-02-19T19:42:58.628Z,13.7
2023-02-19T19:47:58.675Z,13.3
2023-02-19T19:52:58.670Z,10.7
2023-02-19T19:57:58.669Z,10.1
2023-02-19T20:02:58.682Z,9.9
2023-02-19T20:07:58.700Z,9.6
2023-02-19T20:12:58.703Z,9.3
2023-02-19T20:17:58.641Z,9.6
2023-02-19T20:22:58.704Z,9.3
2023-02-19T20:27:58.668Z,9.3
2023-02-19T20:32:58.663Z,9.1
2023-02-19T20:37:58.681Z,8.3
2023-02-19T20:42:59.901Z,8.3
2023-02-19T20:47:59.212Z,8.3
2023-02-19T20:52:58.729Z,8.3
2023-02-19T20:57:58.703Z,9.5
2023-02-19T21:02:59.111Z,8.6
2023-02-19T21:07:58.671Z,9.2
2023-02-19T21:12:58.705Z,9.5
2023-02-19T21:17:58.672Z,9.5
2023-02-19T21:22:58.652Z,9.2
2023-02-19T22:18:07.713Z,12.6
2023-02-19T22:38:10.566Z,15.8
